• Join FlightAware (Why Join?)
  • Login
  • US Flag 
07:06PM EDT


 

Airport Tracker/Info


-or-


 

Live Flight TrackerFlight Track Log ✈ QXE2348 ✈ 24-Oct-2013 ✈ KSEA - KMSO

Flight Track Log - Related Links

Times and Time Zones

All times are in EDT time to prevent confusion due to time zone crossing. See the QXE2348 flight status page for this flight to view local times or setup timezone preferences in your user account.

Time Position Orientation Groundspeed Altitude Reporting Facility
EDT Latitude Longitude Course Direction KTS MPH feet Rate Location/Type
01:40PM 47.4258 -121.5592 95° East  Level Estimated
01:41PM 47.4226 -121.4337 92° East  Level FlightAware Approximate
01:42PM 47.4179 -121.3083 90° East  Level Estimated
01:43PM 47.4131 -121.1830 90° East  Level Estimated
01:44PM 47.4082 -121.0577 95° East  Level Estimated
01:45PM 47.4053 -120.9323 92° East  Level FlightAware Approximate
01:46PM 47.4001 -120.8070 92° East  Level Estimated
01:47PM 47.3978 -120.6816 92° East  Level FlightAware Approximate
01:48PM 47.3953 -120.5562 92° East  Level FlightAware Approximate
01:49PM 47.3827 -120.4324 98° East  Level FlightAware Approximate
01:50PM 47.3700 -120.3086 99° East  Level FlightAware Approximate
01:51PM 47.3572 -120.1849 99° East  Level FlightAware Approximate
01:52PM 47.3514 -120.0601 94° East  Level Estimated
01:53PM 47.3455 -119.9353 94° East  Level FlightAware Approximate
01:54PM 47.3395 -119.8105 94° East  Level FlightAware Approximate
01:55PM 47.3333 -119.6858 94° East  Level FlightAware Approximate
01:56PM 47.3270 -119.5611 94° East  Level FlightAware Approximate
01:57PM 47.3206 -119.4364 94° East  Level FlightAware Approximate
01:58PM 47.3140 -119.3117 94° East  Level FlightAware Approximate
01:59PM 47.3073 -119.1871 94° East  Level FlightAware Approximate
02:00PM 47.3005 -119.0625 95° East  Level FlightAware Approximate
02:01PM 47.2935 -118.9380 95° East  Level FlightAware Approximate
02:02PM 47.2870 -118.8235 95° East  Level FlightAware Approximate
02:03PM 47.2803 -118.7091 95° East  Level FlightAware Approximate
02:04PM 47.2736 -118.5947 95° East  Level FlightAware Approximate
02:05PM 47.2663 -118.4739 95° East  Level FlightAware Approximate
02:06PM 47.2589 -118.3531 95° East  Level FlightAware Approximate
02:07PM 47.2514 -118.2324 95° East  Level FlightAware Approximate
02:08PM 47.2438 -118.1117 95° East  Level FlightAware Approximate
02:09PM 47.2360 -117.9910 95° East  Level FlightAware Approximate
02:10PM 47.2287 -117.8703 95° East  Level FlightAware Approximate
02:11PM 47.2216 -117.7496 95° East  Level FlightAware Approximate
02:12PM 47.2144 -117.6289 95° East  Level FlightAware Approximate
02:13PM 47.2070 -117.5082 95° East  Level FlightAware Approximate
02:14PM 47.1995 -117.3876 95° East  Level FlightAware Approximate
02:15PM 47.1919 -117.2670 95° East  Level FlightAware Approximate
02:16PM 47.1842 -117.1465 95° East  Level FlightAware Approximate
02:17PM 47.1738 -117.0264 97° East  Level FlightAware Approximate
02:18PM 47.1630 -116.9064 97° East  Level FlightAware Approximate
02:19PM 47.1521 -116.7864 98° East  Level FlightAware Approximate
02:20PM 47.1411 -116.6665 98° East  Level FlightAware Approximate
02:21PM 47.1301 -116.5466 97° East  Level FlightAware Approximate
02:22PM 47.1194 -116.4267 97° East  Level FlightAware Approximate
02:23PM 47.1085 -116.3068 98° East  Level FlightAware Approximate
02:24PM 47.0976 -116.1870 98° East  Level FlightAware Approximate
02:25PM 47.0865 -116.0672 98° East  Level FlightAware Approximate
02:26PM 47.0831 -115.9467 95° East  Level FlightAware Approximate
02:27PM 47.0752 -115.8264 96° East  Level FlightAware Approximate
02:28PM 47.0671 -115.7062 96° East  Level FlightAware Approximate
02:29PM 47.0551 -115.5867 98° East  Level FlightAware Approximate
02:30PM 47.0398 -115.4666 101° East  Level FlightAware Approximate
02:31PM 47.0275 -115.3456 97° East  Level FlightAware Approximate
02:32PM 47.0173 -115.2243 97° East  Level FlightAware Approximate
02:33PM 47.0041 -115.1037 99° East  Level FlightAware Approximate
02:34PM 46.9978 -114.9825 100° East  Level FlightAware Approximate
02:35PM 46.9833 -114.8623 90° East  Level FlightAware Approximate
02:36PM 46.9755 -114.7412 99° East  Level FlightAware Approximate
02:37PM 46.9628 -114.6206 99° East  Level FlightAware Approximate
02:38PM 46.9500 -114.5001 99° East  Level FlightAware Approximate
02:39PM 46.9390 -114.3792 98° East  Level FlightAware Approximate
02:40PM 46.9333 -114.2579 90° East  Level FlightAware Approximate
02:41PM 46.9174 -114.1384 102° East  Level FlightAware Approximate
02:42PM 46.9163 -114.0906 116° Southeast  Level Estimated
02:43PM 46.9163 -114.0906 116° Southeast  Level Estimated
02:44PM 46.9163 -114.0906 116° Southeast  Level Estimated
02:45PM 46.9163 -114.0906 116° Southeast  Level Estimated
02:46PM 46.9163 -114.0906 341° North  Level Estimated
02:47PM 46.9163 -114.0906 341° North  Level Estimated
02:48PM 46.9163 -114.0906 341° North  Level Estimated
02:49PM 46.9163 -114.0906 341° North  Level Estimated
02:50PM 46.9163 -114.0906 341° North  Level Estimated
02:51PM 46.9163 -114.0906 341° North  Level Estimated